GCLB weather

El Berriel Aeroc Airport
Gran Canaria Island, Canary Islands, Spain

Public forecast

Using degrees Celsius for public forecast. Weather courtesy of forecast.io.

Closest aviation weather report (METAR) to El Berriel Aeroc Airport

Closest report is Gran Canaria Airport, 11.0 nm (20.4 km) NE. Retrieved 2019/11/13 21:30 UTC (0 seconds ago):

GCLP 132130Z 01021KT 9999 FEW029 BKN039 21/14 Q1018 NOSIG

Closest aviation forecast (TAF) to El Berriel Aeroc Airport

Closest forecast is Gran Canaria Airport, 11.0 nm (20.4 km) NE. Retrieved 2019/11/13 21:39 UTC (0 seconds ago):

TAF GCLP 132000Z 1321/1421 01021KT 9999 SCT030 TX24/1414Z TN20/1406Z PROB30 TEMPO 1321/1401 36022G32KT